Ana Sayfa
METAR-TAF:

METAR-TAF

Havaalanları :

Lynchburg Regional Airport (Preston Glenn Field)

Lynchburg, Virginia, Amerika Birleşik Devletleri

Enlem: 37-19-15N, Boylam: 079-12-24W, yükseklik: 285 m

Güncel hava durumu gözlemi

Rapor saat 10:54 UTC de 1 saat ve 6 dakika önce yapıldı.
Sakin rüzgar
Sıcaklık 22°C
Nem 100%
Basınç 1016 hPa
Görüş mesafesi: 16.1 km
Açık gökyüzü

METAR: KLYH 191054Z 00000KT 10SM CLR 22/22 A3000 RMK AO2 SLP150 T02170217

Saat: 08:00 (12:00 UTC)

Tahmin

Rapor saat 11:20 UTC de 40 dakika önce yapıldı.
Ayın 19'si saat 12 UTC'den ayın 20'si saat 12 UTC'ye kadar geçerli Tahmin
Rüzgar batı/güneybatıdan 5 kt
Görüş mesafesi: 10 km
Açık gökyüzü
Geçici
ayın 19'si saat 12 UTC'den ayın 19'si saat 13 UTC'ye kadar
Görüş mesafesi: 8.0 km
Pus
Ayın 19'si saat 1800 UTC'den
Rüzgar batı/güneybatıdan 6 kt
Görüş mesafesi: 10 km
7000 ft yükseklikte parçalı bulutlu

TAF: KLYH 191120Z 1912/2012 24005KT P6SM SKC TEMPO 1912/1913 5SM BR FM191800 24006KT P6SM SCT070

4.000'den fazla havaalanı için hava durumu gözlemleri ve tahminleri (METAR ve TAF raporları).

Kullanılabilir istasyonlar harita üzerinde sarı ve kırmızı noktalarla gösterilir.

İstasyonun adını görmek için fareyi noktanın üzerinde gezdirin.

Sonrasında hava gözlem ve tahminlerini görmek için tıklayın.

Haritayı değiştirmek için: yaklaştırmak için siyah artı işaretli yeşil düğmeye ve uzaklaştırmak için de eksi işaretli düğmeye hızla tıklayın; bitişik haritalar için yeşil okları kullanın.


METAR-TAF: